Flight Track Log - Related Links

Times and Time Zones

All times are in EDT time to prevent confusion due to time zone crossing. See the ASQ4630 flight status page for this flight to view local times or setup timezone preferences in your user account.

Time Position Orientation Groundspeed Altitude Reporting Facility
EDT Latitude Longitude Course Direction KTS MPH feet Rate Location/Type
Sun 08:29:29 AM 29.9542 -95.3408 132° Southeast 177 204 700  Level Houston Center
Sun 08:30:36 AM 29.9097 -95.2842 132° Southeast 226 260 2,200 1,890 Climbing Houston Center
Sun 08:31:55 AM 29.8492 -95.2078 106° East 280 322 5,300 2,300 Climbing Houston Center
Sun 08:32:36 AM 29.8319 -95.1400 87° East 262 302 6,800 2,317 Climbing Houston Center
Sun 08:33:36 AM 29.8361 -95.0589 87° East 268 308 9,200 2,050 Climbing Houston Center
Sun 08:34:36 AM 29.8406 -94.9656 88° East 288 331 10,900 1,400 Climbing Houston Center
Sun 08:35:36 AM 29.8431 -94.8578 87° East 310 357 12,000 1,100 Climbing Houston Center
Sun 08:36:36 AM 29.8481 -94.7408 88° East 339 390 13,100 1,160 Climbing Houston Center
Sun 08:37:35 AM 29.8508 -94.6164 88° East 368 423 14,300 1,150 Climbing Houston Center
Sun 08:38:36 AM 29.8556 -94.4894 88° East 386 444 15,400 1,140 Climbing Houston Center
Sun 08:39:36 AM 29.8600 -94.3650 91° East 393 452 16,600 1,200 Climbing Houston Center
Sun 08:40:36 AM 29.8586 -94.2311 92° East 402 463 17,800 1,059 Climbing Houston Center
Sun 08:41:35 AM 29.8544 -94.1136 88° East 402 463 18,700 1,050 Climbing Houston Center
Sun 08:42:36 AM 29.8589 -93.9794 83° East 407 468 19,900 1,140 Climbing Houston Center
Sun 08:43:36 AM 29.8736 -93.8481 84° East 407 468 21,000 1,160 Climbing Houston Center
Sun 08:44:35 AM 29.8861 -93.7142 83° East 413 475 22,200 1,200 Climbing Houston Center
Sun 08:45:36 AM 29.9006 -93.5803 83° East 413 475 23,400 1,150 Climbing Houston Center
Sun 08:46:35 AM 29.9150 -93.4417 81° East 423 487 24,500 1,150 Climbing Houston Center
Sun 08:47:36 AM 29.9333 -93.3078 74° East 423 487 25,700 1,289 Climbing Houston Center
Sun 08:48:36 AM 29.9706 -93.1619 72° East 423 487 27,100 1,250 Climbing Houston Center
Sun 08:49:36 AM 30.0053 -93.0356 73° East 417 480 28,200 1,150 Climbing Houston Center
Sun 08:50:36 AM 30.0378 -92.9086 73° East 417 480 29,400 1,160 Climbing Houston Center
Sun 08:51:35 AM 30.0725 -92.7794 73° East 417 480 30,500 1,160 Climbing Houston Center
Sun 08:52:35 AM 30.1067 -92.6528 74° East 417 480 31,700 1,200 Climbing Houston Center
Sun 08:53:35 AM 30.1369 -92.5306 73° East 417 480 32,900 1,150 Climbing Houston Center
Sun 08:54:35 AM 30.1711 -92.4033 73° East 412 474 34,000 1,000 Climbing Houston Center
Sun 08:55:35 AM 30.2031 -92.2786 75° East 407 468 34,900 496 Climbing Houston Center
Sun 08:56:36 AM 30.2286 -92.1683 73° East 401 461 35,000 50 Climbing Houston Center
Sun 08:57:35 AM 30.2667 -92.0194 74° East 414 476 35,000  Level Houston Center
Sun 08:58:36 AM 30.3022 -91.8800 74° East 428 493 35,000  Level Houston Center
Sun 08:59:36 AM 30.3358 -91.7406 71° East 440 506 35,000  Level Houston Center
Sun 09:00:36 AM 30.3756 -91.6056 75° East 457 526 35,000  Level Houston Center
Sun 09:01:36 AM 30.4089 -91.4636 74° East 462 532 35,000  Level Houston Center
Sun 09:02:36 AM 30.4461 -91.3167 75° East 462 532 35,000  Level Houston Center
Sun 09:03:35 AM 30.4811 -91.1694 74° East 462 532 35,000  Level Houston Center
Sun 09:04:35 AM 30.5181 -91.0197 74° East 462 532 35,000  Level Houston Center
Sun 09:05:36 AM 30.5547 -90.8700 75° East 468 539 35,000  Level Houston Center
Sun 09:06:35 AM 30.5894 -90.7228 74° East 468 539 35,000  Level Houston Center
Sun 09:07:36 AM 30.6258 -90.5753 74° East 474 545 35,000  Level Houston Center
Sun 09:08:36 AM 30.6622 -90.4275 76° East 474 545 35,000  Level Houston Center
Sun 09:09:35 AM 30.6981 -90.2653 68° East 474 545 35,000  Level Houston Center
Sun 09:10:35 AM 30.7467 -90.1219 64° Northeast 474 545 35,000  Level Houston Center
Sun 09:11:35 AM 30.8036 -89.9881 65° Northeast 474 545 35,000  Level Houston Center
Sun 09:12:35 AM 30.8600 -89.8469 65° Northeast 468 539 35,000  Level Houston Center
Sun 09:13:35 AM 30.9144 -89.7106 64° Northeast 463 533 35,000  Level Houston Center
Sun 09:14:36 AM 30.9708 -89.5739 65° Northeast 463 533 35,000  Level Houston Center
Sun 09:15:35 AM 31.0272 -89.4344 65° Northeast 463 533 35,000  Level Houston Center
Sun 09:16:35 AM 31.0831 -89.2950 65° Northeast 463 533 35,000  Level Houston Center
Sun 09:17:35 AM 31.1372 -89.1606 66° East 463 533 35,000  Level Houston Center
Sun 09:18:36 AM 31.1908 -89.0183 65° Northeast 463 533 35,000  Level Houston Center
Sun 09:19:35 AM 31.2383 -88.8981 65° Northeast 463 533 35,000  Level Houston Center
Sun 09:20:35 AM 31.2939 -88.7581 65° Northeast 463 533 35,000  Level Houston Center
Sun 09:22:51 AM 31.4197 -88.4456 65° Northeast 477 549 35,000  Level Atlanta Center
Sun 09:23:51 AM 31.4747 -88.3069 66° East 472 543 35,000  Level Atlanta Center
Sun 09:24:51 AM 31.5275 -88.1681 66° East 472 543 35,000  Level Atlanta Center
Sun 09:25:51 AM 31.5800 -88.0317 65° Northeast 472 543 35,000  Level Atlanta Center
Sun 09:26:51 AM 31.6342 -87.8950 66° East 472 543 35,000  Level Atlanta Center
Sun 09:27:51 AM 31.6886 -87.7533 66° East 472 543 35,000  Level Atlanta Center
Sun 09:28:51 AM 31.7408 -87.6139 65° Northeast 472 543 35,000  Level Atlanta Center
Sun 09:29:51 AM 31.7950 -87.4742 65° Northeast 472 543 35,000  Level Atlanta Center
Sun 09:30:51 AM 31.8486 -87.3369 68° East 472 543 35,000  Level Atlanta Center
Sun 09:31:51 AM 31.8983 -87.1919 67° East 472 543 35,000  Level Atlanta Center
Sun 09:32:51 AM 31.9544 -87.0375 66° East 467 537 35,000  Level Atlanta Center
Sun 09:33:51 AM 32.0078 -86.8972 66° East 475 547 35,000  Level Atlanta Center
Sun 09:34:51 AM 32.0611 -86.7567 63° Northeast 475 547 35,000  Level Atlanta Center
Sun 09:35:51 AM 32.1139 -86.6331 68° East 470 541 35,000  Level Atlanta Center
Sun 09:36:51 AM 32.1628 -86.4900 65° Northeast 470 541 35,000  Level Atlanta Center
Sun 09:37:51 AM 32.2219 -86.3369 56° Northeast 470 541 35,000  Level Atlanta Center
Sun 09:38:51 AM 32.2844 -86.2256 52° Northeast 463 533 35,000  Level Atlanta Center
Sun 09:39:51 AM 32.3617 -86.1069 50° Northeast 452 520 35,000  Level Atlanta Center
Sun 09:40:51 AM 32.4536 -85.9761 51° Northeast 452 520 35,000  Level Atlanta Center
Sun 09:41:51 AM 32.5347 -85.8572 51° Northeast 458 527 35,000  Level Atlanta Center
Sun 09:42:51 AM 32.6136 -85.7403 51° Northeast 467 537 35,000  Level Atlanta Center
Sun 09:43:51 AM 32.6925 -85.6233 52° Northeast 455 524 35,000  Level Atlanta Center
Sun 09:44:51 AM 32.7711 -85.5039 51° Northeast 455 524 35,000  Level Atlanta Center
Sun 09:45:51 AM 32.8497 -85.3864 52° Northeast 455 524 35,000  Level Atlanta Center
Sun 09:46:51 AM 32.9281 -85.2664 50° Northeast 455 524 35,000  Level Atlanta Center
Sun 09:47:51 AM 33.0064 -85.1536 53° Northeast 455 524 35,000  Level Atlanta Center
Sun 09:48:51 AM 33.0742 -85.0453 52° Northeast 450 518 35,000  Level Atlanta Center
Sun 09:49:51 AM 33.1544 -84.9222 52° Northeast 450 518 35,000  Level Atlanta Center
Sun 09:50:51 AM 33.2325 -84.8011 52° Northeast 457 526 35,000  Level Atlanta Center
Sun 09:51:51 AM 33.3125 -84.6803 52° Northeast 457 526 35,000  Level Atlanta Center
Sun 09:52:51 AM 33.3925 -84.5564 52° Northeast 457 526 35,000  Level Atlanta Center
Sun 09:53:51 AM 33.4722 -84.4347 53° Northeast 462 532 35,000  Level Atlanta Center
Sun 09:54:51 AM 33.5519 -84.3081 52° Northeast 462 532 35,000  Level Atlanta Center
Sun 09:55:51 AM 33.6333 -84.1836 53° Northeast 468 539 35,000  Level Atlanta Center
Sun 09:56:51 AM 33.7150 -84.0539 52° Northeast 481 554 35,000 -650 Level Atlanta Center
Sun 09:57:51 AM 33.7983 -83.9239 53° Northeast 486 559 33,700 -1,289 Descending Atlanta Center
Sun 09:58:52 AM 33.8794 -83.7961 53° Northeast 479 551 32,400 -1,100 Descending Atlanta Center
Sun 09:59:51 AM 33.9586 -83.6706 52° Northeast 474 545 31,500 -706 Descending Atlanta Center
Sun 10:00:51 AM 34.0436 -83.5375 53° Northeast 469 540 31,000 -250 Descending Atlanta Center
Sun 10:01:51 AM 34.1225 -83.4114 53° Northeast 469 540 31,000  Level Atlanta Center
Sun 10:02:51 AM 34.2011 -83.2853 52° Northeast 469 540 31,000  Level Atlanta Center
Sun 10:03:51 AM 34.2817 -83.1589 53° Northeast 464 534 31,000  Level Atlanta Center
Sun 10:04:51 AM 34.3600 -83.0322 54° Northeast 471 542 31,000 300 Level Atlanta Center
Sun 10:05:51 AM 34.4403 -82.9003 54° Northeast 476 548 31,600 800 Climbing Atlanta Center
Sun 10:06:51 AM 34.5181 -82.7706 54° Northeast 476 548 32,600 700 Climbing Atlanta Center
Sun 10:07:51 AM 34.5961 -82.6408 52° Northeast 481 554 33,000 200 Climbing Atlanta Center
Sun 10:08:51 AM 34.6800 -82.5081 53° Northeast 481 554 33,000  Level Atlanta Center
Sun 10:09:51 AM 34.7556 -82.3853 53° Northeast 496 571 33,000  Level Atlanta Center
Sun 10:10:51 AM 34.8394 -82.2494 53° Northeast 496 571 33,000  Level Atlanta Center
Sun 10:11:51 AM 34.9208 -82.1161 53° Northeast 496 571 33,000  Level Atlanta Center
Sun 10:12:51 AM 35.0042 -81.9797 56° Northeast 496 571 33,000  Level Atlanta Center
Sun 10:13:51 AM 35.0789 -81.8433 57° Northeast 491 565 33,000  Level Atlanta Center
Sun 10:14:51 AM 35.1536 -81.7042 57° Northeast 486 559 33,000  Level Atlanta Center
Sun 10:15:51 AM 35.2239 -81.5700 58° Northeast 476 548 33,000  Level Atlanta Center
Sun 10:16:51 AM 35.2961 -81.4306 58° Northeast 476 548 33,000  Level Atlanta Center
Sun 10:17:52 AM 35.3742 -81.2778 57° Northeast 481 554 33,000  Level Atlanta Center
Sun 10:18:51 AM 35.4442 -81.1428 57° Northeast 495 570 33,000  Level Atlanta Center
Sun 10:19:51 AM 35.5200 -80.9997 57° Northeast 500 575 33,000  Level Atlanta Center
Sun 10:20:51 AM 35.5956 -80.8539 57° Northeast 500 575 33,000  Level Atlanta Center
Sun 10:21:51 AM 35.6711 -80.7081 57° Northeast 505 581 33,000  Level Atlanta Center
Sun 10:22:51 AM 35.7522 -80.5511 58° Northeast 499 574 33,000  Level Atlanta Center
Sun 10:23:51 AM 35.8272 -80.4044 57° Northeast 499 574 33,000  Level Atlanta Center
Sun 10:25:36 AM 35.9519 -80.1644 58° Northeast 517 595 33,000  Level Washington Center
Sun 10:26:37 AM 36.0239 -80.0222 55° Northeast 499 574 33,000  Level Washington Center
Sun 10:27:38 AM 36.1044 -79.8778 56° Northeast 501 577 33,000  Level Washington Center
Sun 10:28:36 AM 36.1956 -79.7128 54° Northeast 524 603 33,000  Level Washington Center
Sun 10:29:36 AM 36.2711 -79.5828 55° Northeast 519 597 33,000 -150 Level Washington Center
Sun 10:30:36 AM 36.3619 -79.4222 56° Northeast 519 597 32,700 -1,140 Descending Washington Center
Sun 10:31:37 AM 36.4417 -79.2739 55° Northeast 519 597 30,700 -1,934 Descending Washington Center
Sun 10:32:37 AM 36.5189 -79.1353 54° Northeast 508 585 28,800 -1,750 Descending Washington Center
Sun 10:33:37 AM 36.6000 -78.9967 55° Northeast 496 571 27,200 -1,636 Descending Washington Center
Sun 10:34:38 AM 36.6683 -78.8728 56° Northeast 490 564 25,500 -1,109 Descending Washington Center
Sun 10:35:36 AM 36.7386 -78.7411 55° Northeast 473 544 25,000 -252 Descending Washington Center
Sun 10:36:37 AM 36.8086 -78.6142 56° Northeast 450 518 25,000  Level Washington Center
Sun 10:37:38 AM 36.8786 -78.4844 56° Northeast 445 512 25,000  Level Washington Center
Sun 10:38:38 AM 36.9547 -78.3444 53° Northeast 445 512 25,000  Level Washington Center
Sun 10:39:36 AM 37.0306 -78.2197 35° Northeast 445 512 25,000 -610 Level Washington Center
Sun 10:40:36 AM 37.1222 -78.1394 30° Northeast 437 503 23,800 -1,438 Descending Washington Center
Sun 10:41:37 AM 37.2344 -78.0569 31° Northeast 427 491 22,100 -893 Descending Washington Center
Sun 10:42:37 AM 37.3339 -77.9819 33° Northeast 420 483 22,000 -50 Descending Washington Center
Sun 10:43:38 AM 37.4294 -77.9039 31° Northeast 415 478 22,000 -605 Level Washington Center
Sun 10:44:36 AM 37.5289 -77.8283 25° Northeast 415 478 20,800 -1,475 Descending Washington Center
Sun 10:45:36 AM 37.6300 -77.7683 25° Northeast 410 472 19,100 -1,686 Descending Washington Center
Sun 10:46:37 AM 37.7292 -77.7108 26° Northeast 394 453 17,400 -1,587 Descending Washington Center
Sun 10:47:37 AM 37.8281 -77.6503 24° Northeast 388 447 15,900 -1,488 Descending Washington Center
Sun 10:48:38 AM 37.9228 -77.5978 25° Northeast 383 441 14,400 -1,613 Descending Washington Center
Sun 10:49:36 AM 38.0114 -77.5447 25° Northeast 366 421 12,700 -1,664 Descending Washington Center
Sun 10:50:37 AM 38.0914 -77.4967 24° Northeast 356 410 11,100 -1,328 Descending Washington Center
Sun 10:51:38 AM 38.1797 -77.4461 23° Northeast 329 379 10,000 -864 Descending Washington Center
Sun 10:52:35 AM 38.2575 -77.4031 26° Northeast 310 357 9,400 -1,017 Descending Washington Center
Sun 10:53:36 AM 38.3311 -77.3572 348° North 300 345 8,000 -1,475 Descending Washington Center
Sun 10:54:37 AM 38.4039 -77.3775 330° Northwest 262 302 6,400 -1,426 Descending Washington Center
Sun 10:55:38 AM 38.4678 -77.4239 347° North 248 285 5,100 -1,041 Descending Washington Center
Sun 10:56:38 AM 38.5364 -77.4442 North 248 285 4,300 -661 Descending Washington Center
Sun 10:57:36 AM 38.6053 -77.4433 North 248 285 3,800 -667 Descending Washington Center
Sun 10:58:26 AM 38.6667 -77.4333 360° North 239 275 3,100 -378 Descending Potomac TRACON
Sun 10:59:27 AM 38.7333 -77.4333 360° North 236 272 3,100 -49 Level Potomac TRACON
Sun 11:00:28 AM 38.8000 -77.4333 360° North 241 277 3,000 -574 Descending Potomac TRACON
Sun 11:01:22 AM 38.8500 -77.4333 360° North 169 194 2,000 -887 Descending Potomac TRACON
Sun 11:02:23 AM 38.8833 -77.4333 360° North 125 144 1,300 -694 Descending Potomac TRACON
Sun 11:03:23 AM 38.9167 -77.4333 360° North 129 148 600 -700 Descending Potomac TRACON

Login

Don't have an account? Register now (free) for customized features, flight alerts, and more!